Latest Coastal Weather Observations for Taree Airport

IDN60701

Issued at 8:51 pm EST Friday 18 August 2017 (issued every 10 minutes, with the page automatically refreshed every 10 minutes)

About coastal observations | Map of coastal stations | Coastal observations for NSW | Marine services | Other Formats
Station Details ID: 060141 Name: TAREE AIRPORT AWS Lat: -31.89 Lon: 152.51 Height: 8.0 m
Data from the previous 72 hours. | See also: Recent months at Taree Airport
Date/Time
EST
Temp
°C
Wind Pressure Rain since
9am
mm
Weather Cloud Vis
km
Sea
Height
m
Swell
Dir  Spd
kts
Gust
kts
hPa Trend Height
m
Period
s
Dir
18/08:30pm 14.2 W 16 23 1012.6 - 0.0 - - 10 - - - -
18/08:03pm 14.6 W 15 25 1012.4 - 0.0 - - 10 - - - -
18/08:00pm 14.7 W 14 23 1012.4 - 0.0 - - 10 - - - -
18/07:30pm 14.9 W 14 20 1012.2 - 0.0 - - 10 - - - -
18/07:00pm 14.9 W 12 20 1011.9 - 0.0 - - 10 - - - -
18/06:30pm 15.6 W 17 30 1011.3 - 0.0 - - 10 - - - -
18/06:25pm 15.4 W 15 29 1011.2 - 0.0 - - 10 - - - -
18/06:00pm 15.7 W 13 21 1010.9 - 0.0 - - 10 - - - -
18/05:30pm 16.2 W 17 29 1010.1 - 0.0 - - 10 - - - -
18/05:00pm 16.6 W 18 28 1009.8 - 0.0 - - 10 - - - -
18/04:35pm 17.2 W 18 28 1009.5 - 0.0 - - 10 - - - -
18/04:30pm 17.3 W 19 28 1009.4 - 0.0 - - 10 - - - -
18/04:00pm 17.6 W 19 34 1008.9 - 0.0 - Partly cloudy 10 - - - -
18/03:30pm 18.1 W 18 28 1008.7 - 0.0 - - 10 - - - -
18/03:00pm 18.2 W 22 33 1008.3 - 0.0 - - 10 - - - -
18/02:32pm 18.5 WSW 18 28 1008.2 - 0.0 - - 10 - - - -
18/02:30pm 18.4 WSW 17 26 1008.2 - 0.0 - - 10 - - - -
18/02:00pm 18.3 W 23 33 1008.0 - 0.0 - - 10 - - - -
18/01:30pm 18.1 W 23 37 1008.1 - 0.0 - - 10 - - - -
18/01:07pm 18.5 W 20 30 1008.2 - 0.0 - - 10 - - - -
18/01:00pm 18.3 W 22 30 1008.2 - 0.0 - - 10 - - - -
18/12:30pm 18.2 W 22 33 1008.4 - 0.0 - - 10 - - - -
18/12:00pm 18.6 W 23 35 1008.7 - 0.0 - - 10 - - - -
18/11:30am 18.3 W 20 34 1009.0 - 0.0 - - 10 - - - -
18/11:00am 18.3 W 22 33 1009.3 - 0.0 - - 10 - - - -
18/10:30am 17.9 W 20 34 1009.6 - 0.0 - - 10 - - - -
18/10:00am 17.7 W 18 31 1009.8 - 0.0 - - 10 - - - -
18/09:30am 17.5 W 23 40 1010.1 - 0.0 - - 10 - - - -
18/09:00am 17.9 W 23 38 1010.0 - 0.0 - - 10 - - - -
18/08:30am 17.9 W 20 36 1009.7 - 0.0 - - 10 - - - -
18/08:29am 18.0 W 20 36 1009.7 - 0.0 - - 10 - - - -
18/08:00am 17.7 W 15 25 1009.6 - 0.0 - - 10 - - - -
18/07:59am 17.7 W 15 25 1009.6 - 0.0 - - 10 - - - -
18/07:30am 17.1 W 11 18 1009.4 - 0.0 - - 10 - - - -
18/07:00am 16.3 WNW 11 16 1009.0 - 0.0 - - 10 - - - -
18/06:30am 16.0 W 9 13 1009.1 - 0.0 - - 10 - - - -
18/06:00am 16.1 WNW 9 15 1008.9 - 0.0 - - 10 - - - -
18/05:30am 16.1 WNW 9 15 1008.5 - 0.0 - - 10 - - - -
18/05:00am 15.5 WNW 8 12 1008.3 - 0.0 - - 10 - - - -
18/04:30am 16.1 WNW 8 10 1008.3 - 0.0 - - 10 - - - -
18/04:00am 16.4 WNW 8 11 1008.1 - 0.0 - - 10 - - - -
18/03:30am 16.8 WNW 9 13 1008.2 - 0.0 - - 10 - - - -
18/03:00am 17.1 WNW 10 15 1008.0 - 0.0 - - 10 - - - -
18/02:30am 16.9 WNW 10 14 1008.4 - 0.0 - - 10 - - - -
18/02:00am 16.6 WNW 9 13 1008.5 - 0.0 - - 10 - - - -
18/01:30am 16.9 WNW 9 13 1008.5 - 0.0 - - 10 - - - -
18/01:00am 17.3 WNW 9 12 1008.7 - 0.0 - - 10 - - - -
18/12:30am 17.6 W 8 11 1008.9 - 0.0 - - 10 - - - -
18/12:00am 17.8 W 9 15 1009.1 - 0.0 - - 10 - - - -
 
Date/Time
EST
Temp
°C
Wind Pressure Rain since
9am
mm
Weather Cloud Vis
km
Sea
Height
m
Swell
Dir  Spd
kts
Gust
kts
hPa Trend Height
m
Period
s
Dir
17/11:30pm 17.1 W 7 10 1009.1 - 0.0 - - 10 - - - -
17/11:00pm 14.0 WSW 5 8 1009.2 - 0.0 - - 10 - - - -
17/10:30pm 12.8 WNW 2 5 1009.3 - 0.0 - - 10 - - - -
17/10:00pm 12.4 NE 3 5 1009.2 - 0.0 - - 10 - - - -
17/09:30pm 11.1 NE 4 5 1009.2 - 0.0 - - 10 - - - -
17/09:00pm 12.6 NNE 5 6 1009.2 - 0.0 - - 10 - - - -
17/08:30pm 15.1 N 5 6 1009.3 - 0.0 - - 10 - - - -
17/08:00pm 15.5 N 5 6 1009.4 - 0.0 - - 10 - - - -
17/07:30pm 17.6 NNW 4 5 1009.4 - 0.0 - - 10 - - - -
17/07:00pm 18.4 NW 5 6 1009.1 - 0.0 - - 10 - - - -
17/06:30pm 19.7 NW 5 7 1008.7 - 0.0 - - 10 - - - -
17/06:00pm 20.3 WNW 7 10 1008.2 - 0.0 - - 10 - - - -
17/05:30pm 21.1 W 9 15 1007.8 - 0.0 - - 10 - - - -
17/05:00pm 22.1 WNW 10 16 1007.4 - 0.0 - - 10 - - - -
17/04:30pm 23.3 WNW 6 10 1006.9 - 0.0 - - 10 - - - -
17/04:00pm 23.9 WNW 9 17 1006.6 - 0.0 - - 10 - - - -
17/03:30pm 24.2 SW 6 8 1006.4 - 0.0 - - 10 - - - -
17/03:00pm 24.9 WNW 9 17 1006.4 - 0.0 - - 10 - - - -
17/02:30pm 24.7 WNW 7 13 1006.4 - 0.0 - - 10 - - - -
17/02:00pm 24.6 WNW 7 11 1006.4 - 0.0 - - 10 - - - -
17/01:30pm 24.1 W 9 14 1006.7 - 0.0 - - 10 - - - -
17/01:00pm 24.0 W 9 16 1006.9 - 0.0 - - 10 - - - -
17/12:30pm 23.6 WNW 9 14 1007.3 - 0.0 - - 10 - - - -
17/12:00pm 23.3 WNW 11 16 1007.9 - 0.0 - - 10 - - - -
17/11:30am 23.1 W 11 17 1008.4 - 0.0 - - 10 - - - -
17/11:00am 22.4 WSW 11 19 1009.1 - 0.0 - - 10 - - - -
17/10:30am 21.3 WSW 10 16 1009.6 - 0.0 - - 10 - - - -
17/10:00am 20.6 WSW 6 11 1010.1 - 0.0 - - 10 - - - -
17/09:30am 18.2 W 5 7 1010.3 - 0.0 - - 10 - - - -
17/09:00am 15.8 WNW 3 5 1010.3 - 0.0 - - 10 - - - -
17/08:30am 14.0 WSW 5 6 1010.4 - 0.0 - - 10 - - - -
17/08:20am 13.1 WSW 4 6 1010.3 - 0.0 - - 10 - - - -
17/08:00am 11.5 WSW 3 6 1010.3 - 0.0 - - 4 - - - -
17/07:30am 9.7 W 3 5 1010.1 - 0.0 - - 4 - - - -
17/07:00am 7.8 W 1 4 1010.0 - 0.0 - - 2 - - - -
17/06:30am 7.5 W 3 4 1009.6 - 0.0 - - 5 - - - -
17/06:08am 8.3 CALM 0 0 1009.5 - 0.0 - - 5 - - - -
17/06:01am 8.1 CALM 0 0 1009.5 - 0.0 - - 7 - - - -
17/06:00am 8.1 CALM 0 0 1009.5 - 0.0 - - 8 - - - -
17/05:45am 8.4 WNW 1 4 1009.3 - 0.0 - - 5 - - - -
17/05:41am 8.1 W 2 4 1009.2 - 0.0 - - 7 - - - -
17/05:30am 8.4 SW 4 5 1009.3 - 0.0 - - 5 - - - -
17/05:00am 8.7 WSW 2 5 1009.1 - 0.0 - - 3 - - - -
17/04:30am 8.8 W 3 4 1008.9 - 0.0 - - 4 - - - -
17/04:00am 8.9 CALM 0 1 1008.7 - 0.0 - - 3 - - - -
17/03:30am 9.8 W 3 4 1008.7 - 0.0 - - 4 - - - -
17/03:16am 9.6 WSW 3 4 1008.6 - 0.0 - - 5 - - - -
17/03:00am 9.9 CALM 0 4 1008.6 - 0.0 - - 9 - - - -
17/02:30am 9.8 CALM 0 0 1008.7 - 0.0 - - 10 - - - -
17/02:00am 10.2 CALM 0 3 1008.8 - 0.0 - - 10 - - - -
17/01:30am 11.4 CALM 0 3 1008.9 - 0.0 - - 10 - - - -
17/01:00am 12.4 NNW 3 4 1008.9 - 0.0 - - 10 - - - -
17/12:30am 12.3 CALM 0 0 1009.0 - 0.0 - - 10 - - - -
17/12:00am 12.2 NE 3 4 1009.1 - 0.0 - - 10 - - - -
 
Date/Time
EST
Temp
°C
Wind Pressure Rain since
9am
mm
Weather Cloud Vis
km
Sea
Height
m
Swell
Dir  Spd
kts
Gust
kts
hPa Trend Height
m
Period
s
Dir
16/11:30pm 12.2 NE 3 4 1008.9 - 0.0 - - 10 - - - -
16/11:00pm 12.6 E 3 4 1008.8 - 0.0 - - 10 - - - -
16/10:30pm 14.5 SSW 5 6 1008.7 - 0.0 - - 10 - - - -
16/10:00pm 14.4 CALM 0 0 1008.6 - 0.0 - - 10 - - - -
16/09:30pm 17.3 SW 4 5 1008.4 - 0.0 - - 10 - - - -
16/09:00pm 18.2 WNW 3 5 1008.2 - 0.0 - - 10 - - - -
16/08:30pm 18.6 WSW 5 8 1007.7 - 0.0 - - 10 - - - -
16/08:00pm 19.4 WSW 6 8 1007.4 - 0.0 - - 10 - - - -
16/07:30pm 21.2 WNW 6 7 1007.1 - 0.0 - - 10 - - - -
16/07:00pm 21.4 WNW 6 7 1006.6 - 0.0 - - 10 - - - -
16/06:30pm 21.9 WNW 6 7 1006.3 - 0.0 - - 10 - - - -
16/06:00pm 22.9 WNW 7 8 1005.9 - 0.0 - - 10 - - - -
16/05:30pm 23.9 WNW 10 17 1005.5 - 0.0 - - 10 - - - -
16/05:03pm 25.0 W 15 25 1004.9 - 0.0 - - 10 - - - -
16/05:00pm 25.0 W 14 23 1004.9 - 0.0 - - 10 - - - -
16/04:30pm 25.5 W 8 15 1004.4 - 0.0 - - 10 - - - -
16/04:00pm 26.4 WSW 12 18 1003.6 - 0.0 - - 10 - - - -
16/03:30pm 27.1 W 14 20 1003.2 - 0.0 - - 10 - - - -
16/03:00pm 28.0 W 15 25 1002.8 - 0.0 - - 10 - - - -
16/02:53pm 28.1 WSW 15 25 1002.6 - 0.0 - - 10 - - - -
16/02:30pm 28.3 WSW 16 25 1002.4 - 0.0 - - 10 - - - -
16/02:00pm 29.5 W 18 33 1002.1 - 0.0 - - 10 - - - -
16/01:32pm 29.7 W 20 40 1001.9 - 0.0 - - 10 - - - -
16/01:30pm 29.6 W 19 30 1001.8 - 0.0 - - 10 - - - -
16/01:04pm 29.8 W 15 28 1001.5 - 0.0 - - 10 - - - -
16/01:00pm 30.1 W 13 22 1001.4 - 0.0 - - 10 - - - -
16/12:30pm 30.0 WNW 15 24 1001.6 - 0.0 - - 10 - - - -
16/12:00pm 29.7 WNW 22 33 1001.6 - 0.0 - - 10 - - - -
16/11:30am 29.8 WNW 23 34 1001.7 - 0.0 - - 10 - - - -
16/11:17am 30.0 WNW 20 35 1001.7 - 0.0 - - 10 - - - -
16/11:07am 29.9 WNW 15 25 1001.8 - 0.0 - - 10 - - - -
16/11:00am 29.9 WNW 12 20 1002.0 - 0.0 - - 10 - - - -
16/10:37am 29.6 WNW 16 26 1001.8 - 0.0 - - 10 - - - -
16/10:30am 29.4 WNW 17 26 1002.0 - 0.0 - - 10 - - - -
16/10:14am 29.3 WNW 16 26 1002.3 - 0.0 - - 10 - - - -
16/10:00am 29.0 NW 15 23 1002.2 - 0.0 - - 10 - - - -
16/09:41am 28.6 WNW 15 27 1002.3 - 0.0 - - 10 - - - -
16/09:30am 28.1 WNW 10 16 1002.4 - 0.0 - - 10 - - - -
16/09:00am 27.1 NW 7 10 1002.3 - 0.0 - - 10 - - - -
16/08:30am 26.2 NNW 11 17 1002.3 - 0.0 - - 10 - - - -
16/08:00am 23.7 NNW 5 7 1003.0 - 0.0 - - 10 - - - -
16/07:57am 21.5 NNW 5 7 1003.1 - 0.0 - - 10 - - - -
16/07:30am 16.4 NE 5 7 1003.4 - 0.0 - - 10 - - - -
16/07:00am 15.1 S 2 7 1003.5 - 0.0 - - 10 - - - -
16/06:30am 14.8 SE 3 5 1003.4 - 0.0 - - 10 - - - -
16/06:00am 14.9 ENE 4 5 1003.0 - 0.0 - - 10 - - - -
16/05:30am 14.2 NNE 3 5 1003.1 - 0.0 - - 10 - - - -
16/05:00am 17.6 NE 8 12 1003.2 - 0.0 - - 10 - - - -
16/04:30am 19.9 NNE 8 13 1003.4 - 0.0 - - 10 - - - -
16/04:00am 20.2 NNE 8 12 1003.8 - 0.0 - - 10 - - - -
16/03:30am 17.5 NNE 6 9 1003.9 - 0.0 - - 10 - - - -
16/03:00am 16.8 NNE 5 7 1004.4 - 0.0 - - 10 - - - -
16/02:30am 11.7 N 4 5 1004.9 - 0.0 - - 10 - - - -
16/02:00am 12.0 WSW 2 5 1005.4 - 0.0 - - 10 - - - -
16/01:30am 11.9 CALM 0 0 1006.4 - 0.0 - - 10 - - - -
16/01:00am 12.6 SW 5 7 1007.1 - 0.0 - - 10 - - - -
16/12:30am 13.2 W 2 4 1007.4 - 0.0 - - 10 - - - -
16/12:00am 13.0 SW 3 5 1007.9 - 0.0 - - 10 - - - -
 
Date/Time
EST
Temp
°C
Wind Pressure Rain since
9am
mm
Weather Cloud Vis
km
Sea
Height
m
Swell
Dir  Spd
kts
Gust
kts
hPa Trend Height
m
Period
s
Dir
15/11:30pm 14.1 N 3 5 1008.3 - 0.0 - - 10 - - - -
15/11:00pm 14.9 CALM 0 0 1008.9 - 0.0 - - 10 - - - -
15/10:30pm 15.7 CALM 0 0 1009.4 - 0.0 - - 10 - - - -
15/10:00pm 16.7 CALM 0 0 1009.8 - 0.0 - - 10 - - - -
15/09:30pm 16.7 CALM 0 0 1009.9 - 0.0 - - 10 - - - -
15/09:00pm 17.6 CALM 0 3 1010.2 - 0.0 - Mostly cloudy 10 - - - -

Other Formats:

Comma delimited format used in spreadsheet applications
http://www.bom.gov.au/fwo/IDN60701/IDN60701.95784.axf

JavaScript Object Notation format (JSON) in row-major order
http://www.bom.gov.au/fwo/IDN60701/IDN60701.95784.json